sensor_id;sensor_type;location;lat;lon;timestamp;pressure;altitude;pressure_sealevel;temperature;humidity
46886;BME280;32622;48.202;11.326;2022-12-18T00:01:57;1034.60;;;-9.51;47.50
46886;BME280;32622;48.202;11.326;2022-12-18T00:04:02;1034.94;;;-10.92;51.04
46886;BME280;32622;48.202;11.326;2022-12-18T00:06:06;1034.51;;;-9.48;48.78
46886;BME280;32622;48.202;11.326;2022-12-18T00:08:09;1034.80;;;-10.68;51.19
46886;BME280;32622;48.202;11.326;2022-12-18T00:10:12;1034.50;;;-9.52;48.50
46886;BME280;32622;48.202;11.326;2022-12-18T00:12:14;1034.84;;;-10.56;50.92
46886;BME280;32622;48.202;11.326;2022-12-18T00:14:17;1034.57;;;-9.62;48.79
46886;BME280;32622;48.202;11.326;2022-12-18T00:16:22;1034.51;;;-8.96;46.90
46886;BME280;32622;48.202;11.326;2022-12-18T00:18:25;1035.01;;;-10.52;50.18
46886;BME280;32622;48.202;11.326;2022-12-18T00:20:28;1034.91;;;-9.83;49.28
46886;BME280;32622;48.202;11.326;2022-12-18T00:22:31;1035.01;;;-10.02;50.86
46886;BME280;32622;48.202;11.326;2022-12-18T00:24:34;1035.01;;;-10.10;50.73
46886;BME280;32622;48.202;11.326;2022-12-18T00:26:38;1035.34;;;-11.20;52.65
46886;BME280;32622;48.202;11.326;2022-12-18T00:28:41;1035.50;;;-11.90;53.56
46886;BME280;32622;48.202;11.326;2022-12-18T00:30:44;1034.79;;;-9.48;49.15
46886;BME280;32622;48.202;11.326;2022-12-18T00:32:47;1035.09;;;-10.58;50.12
46886;BME280;32622;48.202;11.326;2022-12-18T00:34:49;1035.23;;;-11.02;51.06
46886;BME280;32622;48.202;11.326;2022-12-18T00:36:52;1034.83;;;-9.60;47.32
46886;BME280;32622;48.202;11.326;2022-12-18T00:38:56;1035.31;;;-11.12;51.40
46886;BME280;32622;48.202;11.326;2022-12-18T00:41:00;1035.11;;;-10.24;48.86
46886;BME280;32622;48.202;11.326;2022-12-18T00:43:02;1034.80;;;-9.13;47.63
46886;BME280;32622;48.202;11.326;2022-12-18T00:45:06;1035.39;;;-10.99;51.23
46886;BME280;32622;48.202;11.326;2022-12-18T00:47:09;1035.33;;;-10.90;52.17
46886;BME280;32622;48.202;11.326;2022-12-18T00:49:13;1035.71;;;-12.20;53.54
46886;BME280;32622;48.202;11.326;2022-12-18T00:51:16;1035.29;;;-10.51;50.81
46886;BME280;32622;48.202;11.326;2022-12-18T00:53:18;1035.33;;;-10.45;49.14
46886;BME280;32622;48.202;11.326;2022-12-18T00:55:21;1035.86;;;-12.11;53.21
46886;BME280;32622;48.202;11.326;2022-12-18T00:57:24;1035.37;;;-10.06;50.23
46886;BME280;32622;48.202;11.326;2022-12-18T00:59:27;1035.42;;;-10.15;49.20
46886;BME280;32622;48.202;11.326;2022-12-18T01:01:29;1035.27;;;-9.69;47.29
46886;BME280;32622;48.202;11.326;2022-12-18T01:03:32;1035.25;;;-9.50;46.47
46886;BME280;32622;48.202;11.326;2022-12-18T01:05:39;1035.46;;;-10.17;48.49
46886;BME280;32622;48.202;11.326;2022-12-18T01:07:42;1035.66;;;-10.80;47.83
46886;BME280;32622;48.202;11.326;2022-12-18T01:09:44;1035.99;;;-11.87;51.53
46886;BME280;32622;48.202;11.326;2022-12-18T01:11:47;1036.19;;;-12.25;52.58
46886;BME280;32622;48.202;11.326;2022-12-18T01:13:51;1036.21;;;-12.38;53.83
46886;BME280;32622;48.202;11.326;2022-12-18T01:15:54;1035.66;;;-10.43;50.83
46886;BME280;32622;48.202;11.326;2022-12-18T01:17:57;1035.75;;;-10.57;50.37
46886;BME280;32622;48.202;11.326;2022-12-18T01:20:00;1035.62;;;-9.82;48.17
46886;BME280;32622;48.202;11.326;2022-12-18T01:22:02;1035.61;;;-9.84;48.08
46886;BME280;32622;48.202;11.326;2022-12-18T01:24:05;1035.85;;;-10.80;48.80
46886;BME280;32622;48.202;11.326;2022-12-18T01:26:11;1035.64;;;-10.21;47.92
46886;BME280;32622;48.202;11.326;2022-12-18T01:28:15;1035.57;;;-9.81;47.57
46886;BME280;32622;48.202;11.326;2022-12-18T01:30:17;1035.75;;;-10.41;47.54
46886;BME280;32622;48.202;11.326;2022-12-18T01:32:20;1035.47;;;-9.24;46.53
46886;BME280;32622;48.202;11.326;2022-12-18T01:34:23;1035.66;;;-9.73;47.61
46886;BME280;32622;48.202;11.326;2022-12-18T01:36:28;1036.06;;;-11.04;48.83
46886;BME280;32622;48.202;11.326;2022-12-18T01:38:31;1035.94;;;-10.51;48.30
46886;BME280;32622;48.202;11.326;2022-12-18T01:40:33;1035.85;;;-10.30;47.95
46886;BME280;32622;48.202;11.326;2022-12-18T01:42:37;1035.76;;;-10.14;47.10
46886;BME280;32622;48.202;11.326;2022-12-18T01:44:59;1035.77;;;-10.19;47.71
46886;BME280;32622;48.202;11.326;2022-12-18T01:48:39;1035.98;;;-10.37;51.87
46886;BME280;32622;48.202;11.326;2022-12-18T01:50:43;1036.70;;;-12.85;54.48
46886;BME280;32622;48.202;11.326;2022-12-18T01:52:48;1036.07;;;-11.06;50.00
46886;BME280;32622;48.202;11.326;2022-12-18T01:54:52;1036.19;;;-11.65;50.42
46886;BME280;32622;48.202;11.326;2022-12-18T01:56:55;1036.11;;;-11.27;50.16
46886;BME280;32622;48.202;11.326;2022-12-18T01:59:05;1036.00;;;-10.93;48.93
46886;BME280;32622;48.202;11.326;2022-12-18T02:01:10;1036.79;;;-13.57;53.94
46886;BME280;32622;48.202;11.326;2022-12-18T02:04:21;1035.72;;;-9.57;51.01
46886;BME280;32622;48.202;11.326;2022-12-18T02:07:09;1035.47;;;-9.17;50.05
46886;BME280;32622;48.202;11.326;2022-12-18T02:09:17;1036.09;;;-11.59;50.37
46886;BME280;32622;48.202;11.326;2022-12-18T02:11:32;1035.62;;;-10.23;48.95
46886;BME280;32622;48.202;11.326;2022-12-18T02:14:46;1034.89;;;-7.35;47.39
46886;BME280;32622;48.202;11.326;2022-12-18T02:17:07;1035.32;;;-9.27;45.90
46886;BME280;32622;48.202;11.326;2022-12-18T02:19:42;1035.21;;;-8.92;44.70
46886;BME280;32622;48.202;11.326;2022-12-18T02:22:06;1035.34;;;-9.41;45.78
46886;BME280;32622;48.202;11.326;2022-12-18T02:24:23;1035.69;;;-10.56;47.98
46886;BME280;32622;48.202;11.326;2022-12-18T02:28:38;1035.13;;;-8.21;47.33
46886;BME280;32622;48.202;11.326;2022-12-18T02:31:42;1034.97;;;-7.42;46.50
46886;BME280;32622;48.202;11.326;2022-12-18T02:33:46;1035.49;;;-9.32;47.35
46886;BME280;32622;48.202;11.326;2022-12-18T02:35:50;1035.81;;;-10.76;47.19
46886;BME280;32622;48.202;11.326;2022-12-18T02:39:33;1034.74;;;-7.08;46.50
46886;BME280;32622;48.202;11.326;2022-12-18T02:41:37;1035.51;;;-10.12;47.49
46886;BME280;32622;48.202;11.326;2022-12-18T02:44:25;1035.67;;;-10.45;48.34
46886;BME280;32622;48.202;11.326;2022-12-18T02:46:42;1035.72;;;-10.38;49.70
46886;BME280;32622;48.202;11.326;2022-12-18T02:49:01;1035.58;;;-9.79;48.81
46886;BME280;32622;48.202;11.326;2022-12-18T02:51:22;1035.76;;;-10.29;48.23
46886;BME280;32622;48.202;11.326;2022-12-18T02:53:45;1036.10;;;-11.61;51.88
46886;BME280;32622;48.202;11.326;2022-12-18T02:56:09;1035.68;;;-10.17;49.43
46886;BME280;32622;48.202;11.326;2022-12-18T02:58:30;1035.65;;;-10.25;49.29
46886;BME280;32622;48.202;11.326;2022-12-18T03:00:52;1035.62;;;-10.20;50.03
46886;BME280;32622;48.202;11.326;2022-12-18T05:23:35;1035.99;;;-9.32;51.43
46886;BME280;32622;48.202;11.326;2022-12-18T05:25:38;1036.30;;;-10.44;51.08
46886;BME280;32622;48.202;11.326;2022-12-18T05:27:42;1036.33;;;-10.30;49.87
46886;BME280;32622;48.202;11.326;2022-12-18T05:29:45;1036.76;;;-11.52;53.63
46886;BME280;32622;48.202;11.326;2022-12-18T05:31:48;1036.42;;;-10.37;50.99
46886;BME280;32622;48.202;11.326;2022-12-18T05:33:51;1036.27;;;-9.61;48.32
46886;BME280;32622;48.202;11.326;2022-12-18T05:35:55;1036.56;;;-10.77;51.26
46886;BME280;32622;48.202;11.326;2022-12-18T05:37:59;1036.10;;;-9.41;47.76
46886;BME280;32622;48.202;11.326;2022-12-18T05:40:03;1036.24;;;-9.86;47.88
46886;BME280;32622;48.202;11.326;2022-12-18T05:42:06;1036.86;;;-12.18;54.47
46886;BME280;32622;48.202;11.326;2022-12-18T05:44:10;1036.35;;;-10.48;51.00
46886;BME280;32622;48.202;11.326;2022-12-18T05:46:15;1036.55;;;-10.92;50.99
46886;BME280;32622;48.202;11.326;2022-12-18T05:48:20;1036.40;;;-10.35;50.76
46886;BME280;32622;48.202;11.326;2022-12-18T05:50:23;1036.89;;;-11.96;54.32
46886;BME280;32622;48.202;11.326;2022-12-18T05:52:26;1036.84;;;-11.87;53.80
46886;BME280;32622;48.202;11.326;2022-12-18T05:54:29;1036.41;;;-10.48;49.76
46886;BME280;32622;48.202;11.326;2022-12-18T05:56:33;1036.36;;;-10.22;48.98
46886;BME280;32622;48.202;11.326;2022-12-18T05:58:37;1036.16;;;-9.29;47.38
46886;BME280;32622;48.202;11.326;2022-12-18T06:00:42;1036.75;;;-11.39;52.49
46886;BME280;32622;48.202;11.326;2022-12-18T06:02:47;1036.49;;;-10.42;49.33
46886;BME280;32622;48.202;11.326;2022-12-18T06:04:50;1036.57;;;-10.75;50.45
46886;BME280;32622;48.202;11.326;2022-12-18T06:06:53;1036.47;;;-10.47;51.66
46886;BME280;32622;48.202;11.326;2022-12-18T06:08:56;1036.33;;;-9.99;49.68
46886;BME280;32622;48.202;11.326;2022-12-18T06:10:59;1036.47;;;-10.53;50.54
46886;BME280;32622;48.202;11.326;2022-12-18T06:13:03;1036.65;;;-11.24;50.57
46886;BME280;32622;48.202;11.326;2022-12-18T06:15:08;1036.49;;;-10.52;49.88
46886;BME280;32622;48.202;11.326;2022-12-18T06:17:11;1036.10;;;-9.12;47.34
46886;BME280;32622;48.202;11.326;2022-12-18T06:19:16;1036.37;;;-9.87;48.29
46886;BME280;32622;48.202;11.326;2022-12-18T06:21:19;1036.40;;;-9.77;46.64
46886;BME280;32622;48.202;11.326;2022-12-18T06:23:22;1036.10;;;-8.77;45.35
46886;BME280;32622;48.202;11.326;2022-12-18T06:25:25;1035.80;;;-7.50;43.14
46886;BME280;32622;48.202;11.326;2022-12-18T06:27:29;1035.85;;;-7.47;42.56
46886;BME280;32622;48.202;11.326;2022-12-18T06:29:32;1036.57;;;-9.99;47.93
46886;BME280;32622;48.202;11.326;2022-12-18T06:31:36;1036.34;;;-9.01;46.35
46886;BME280;32622;48.202;11.326;2022-12-18T06:33:39;1036.37;;;-9.24;47.06
46886;BME280;32622;48.202;11.326;2022-12-18T06:35:43;1036.48;;;-9.59;47.05
46886;BME280;32622;48.202;11.326;2022-12-18T06:37:46;1036.40;;;-9.43;46.82
46886;BME280;32622;48.202;11.326;2022-12-18T06:39:49;1036.54;;;-9.83;47.46
46886;BME280;32622;48.202;11.326;2022-12-18T06:41:52;1036.39;;;-9.20;46.00
46886;BME280;32622;48.202;11.326;2022-12-18T06:43:55;1036.45;;;-9.24;46.61
46886;BME280;32622;48.202;11.326;2022-12-18T06:46:00;1036.39;;;-9.07;45.34
46886;BME280;32622;48.202;11.326;2022-12-18T06:48:04;1036.59;;;-9.39;46.63
46886;BME280;32622;48.202;11.326;2022-12-18T06:50:07;1036.30;;;-8.34;44.86
46886;BME280;32622;48.202;11.326;2022-12-18T06:52:10;1036.30;;;-8.13;43.92
46886;BME280;32622;48.202;11.326;2022-12-18T06:54:13;1036.46;;;-8.77;45.12
46886;BME280;32622;48.202;11.326;2022-12-18T06:56:16;1036.51;;;-8.96;44.92
46886;BME280;32622;48.202;11.326;2022-12-18T06:58:19;1036.39;;;-8.38;44.58
46886;BME280;32622;48.202;11.326;2022-12-18T07:00:23;1036.90;;;-10.06;45.67
46886;BME280;32622;48.202;11.326;2022-12-18T07:02:27;1036.71;;;-9.24;46.05
46886;BME280;32622;48.202;11.326;2022-12-18T07:04:31;1036.68;;;-8.99;45.35
46886;BME280;32622;48.202;11.326;2022-12-18T07:06:34;1036.57;;;-8.58;44.91
46886;BME280;32622;48.202;11.326;2022-12-18T07:08:37;1036.67;;;-8.95;45.40
46886;BME280;32622;48.202;11.326;2022-12-18T07:10:42;1037.18;;;-10.45;48.47
46886;BME280;32622;48.202;11.326;2022-12-18T07:12:45;1037.17;;;-10.38;49.24
46886;BME280;32622;48.202;11.326;2022-12-18T07:14:48;1037.16;;;-10.22;47.57
46886;BME280;32622;48.202;11.326;2022-12-18T07:16:51;1037.14;;;-10.19;47.68
46886;BME280;32622;48.202;11.326;2022-12-18T07:18:55;1036.87;;;-9.08;46.10
46886;BME280;32622;48.202;11.326;2022-12-18T07:21:02;1036.98;;;-9.36;46.99
46886;BME280;32622;48.202;11.326;2022-12-18T07:23:05;1036.65;;;-8.43;44.84
46886;BME280;32622;48.202;11.326;2022-12-18T07:25:09;1036.92;;;-9.38;45.73
46886;BME280;32622;48.202;11.326;2022-12-18T07:27:12;1036.66;;;-8.73;44.39
46886;BME280;32622;48.202;11.326;2022-12-18T07:29:15;1036.44;;;-8.08;43.72
46886;BME280;32622;48.202;11.326;2022-12-18T07:31:20;1036.93;;;-9.70;45.72
46886;BME280;32622;48.202;11.326;2022-12-18T07:33:24;1037.34;;;-10.84;49.36
46886;BME280;32622;48.202;11.326;2022-12-18T07:35:28;1037.06;;;-9.90;48.54
46886;BME280;32622;48.202;11.326;2022-12-18T07:37:31;1037.16;;;-10.34;48.35
46886;BME280;32622;48.202;11.326;2022-12-18T07:39:34;1037.20;;;-10.50;48.96
46886;BME280;32622;48.202;11.326;2022-12-18T07:41:37;1037.08;;;-9.96;48.99
46886;BME280;32622;48.202;11.326;2022-12-18T07:43:41;1037.09;;;-9.94;47.12
46886;BME280;32622;48.202;11.326;2022-12-18T07:45:45;1037.71;;;-11.84;50.50
46886;BME280;32622;48.202;11.326;2022-12-18T07:47:48;1038.08;;;-13.15;54.60
46886;BME280;32622;48.202;11.326;2022-12-18T07:49:51;1037.93;;;-12.53;53.39
46886;BME280;32622;48.202;11.326;2022-12-18T07:51:55;1037.58;;;-11.14;52.55
46886;BME280;32622;48.202;11.326;2022-12-18T07:53:58;1037.73;;;-11.66;53.40
46886;BME280;32622;48.202;11.326;2022-12-18T07:56:03;1037.48;;;-10.80;50.17
46886;BME280;32622;48.202;11.326;2022-12-18T07:58:07;1037.23;;;-10.10;48.91
46886;BME280;32622;48.202;11.326;2022-12-18T08:00:12;1037.63;;;-11.08;51.01
46886;BME280;32622;48.202;11.326;2022-12-18T08:02:15;1037.46;;;-10.44;48.46
46886;BME280;32622;48.202;11.326;2022-12-18T08:04:18;1037.30;;;-9.81;46.78
46886;BME280;32622;48.202;11.326;2022-12-18T08:06:21;1037.10;;;-9.02;46.02
46886;BME280;32622;48.202;11.326;2022-12-18T08:08:24;1037.21;;;-9.28;46.39
46886;BME280;32622;48.202;11.326;2022-12-18T08:10:28;1037.07;;;-8.83;45.33
46886;BME280;32622;48.202;11.326;2022-12-18T08:12:31;1037.05;;;-8.75;44.40
46886;BME280;32622;48.202;11.326;2022-12-18T08:14:34;1037.70;;;-10.81;46.72
46886;BME280;32622;48.202;11.326;2022-12-18T08:16:37;1037.25;;;-9.07;45.73
46886;BME280;32622;48.202;11.326;2022-12-18T08:18:40;1037.12;;;-8.77;44.58
46886;BME280;32622;48.202;11.326;2022-12-18T08:20:43;1037.62;;;-10.64;49.72
46886;BME280;32622;48.202;11.326;2022-12-18T08:22:46;1037.77;;;-11.27;48.63
46886;BME280;32622;48.202;11.326;2022-12-18T08:24:49;1037.72;;;-10.89;48.78
46886;BME280;32622;48.202;11.326;2022-12-18T08:26:53;1037.70;;;-11.00;48.59
46886;BME280;32622;48.202;11.326;2022-12-18T08:28:58;1037.32;;;-9.49;46.92
46886;BME280;32622;48.202;11.326;2022-12-18T08:31:01;1037.44;;;-9.90;46.75
46886;BME280;32622;48.202;11.326;2022-12-18T08:33:05;1037.46;;;-9.93;46.88
46886;BME280;32622;48.202;11.326;2022-12-18T08:35:09;1037.10;;;-8.55;44.64
46886;BME280;32622;48.202;11.326;2022-12-18T08:37:12;1038.05;;;-11.53;49.88
46886;BME280;32622;48.202;11.326;2022-12-18T08:39:15;1037.82;;;-10.82;49.90
46886;BME280;32622;48.202;11.326;2022-12-18T08:41:19;1037.70;;;-10.56;48.29
46886;BME280;32622;48.202;11.326;2022-12-18T08:43:22;1037.22;;;-8.74;44.95
46886;BME280;32622;48.202;11.326;2022-12-18T08:45:25;1037.27;;;-9.08;45.46
46886;BME280;32622;48.202;11.326;2022-12-18T08:47:29;1037.03;;;-8.34;44.35
46886;BME280;32622;48.202;11.326;2022-12-18T08:49:32;1037.14;;;-8.83;43.66
46886;BME280;32622;48.202;11.326;2022-12-18T08:51:35;1036.82;;;-7.74;41.28
46886;BME280;32622;48.202;11.326;2022-12-18T08:53:38;1037.25;;;-9.12;42.55
46886;BME280;32622;48.202;11.326;2022-12-18T08:55:41;1037.30;;;-9.08;44.06
46886;BME280;32622;48.202;11.326;2022-12-18T08:57:48;1037.28;;;-8.92;44.24
46886;BME280;32622;48.202;11.326;2022-12-18T08:59:51;1037.57;;;-9.65;46.26
46886;BME280;32622;48.202;11.326;2022-12-18T09:01:54;1037.73;;;-10.05;46.71
46886;BME280;32622;48.202;11.326;2022-12-18T09:03:57;1037.85;;;-10.53;48.52
46886;BME280;32622;48.202;11.326;2022-12-18T09:06:01;1037.70;;;-10.10;49.22
46886;BME280;32622;48.202;11.326;2022-12-18T09:08:04;1037.61;;;-9.88;47.05
46886;BME280;32622;48.202;11.326;2022-12-18T09:10:08;1037.24;;;-8.55;44.99
46886;BME280;32622;48.202;11.326;2022-12-18T09:12:11;1037.45;;;-9.22;45.95
46886;BME280;32622;48.202;11.326;2022-12-18T09:14:14;1037.59;;;-9.80;45.99
46886;BME280;32622;48.202;11.326;2022-12-18T09:16:18;1037.41;;;-9.32;45.51
46886;BME280;32622;48.202;11.326;2022-12-18T09:18:23;1037.34;;;-9.17;45.25
46886;BME280;32622;48.202;11.326;2022-12-18T09:20:26;1037.66;;;-10.29;47.93
46886;BME280;32622;48.202;11.326;2022-12-18T09:22:30;1037.70;;;-10.44;49.56
46886;BME280;32622;48.202;11.326;2022-12-18T09:24:33;1037.53;;;-9.82;47.54
46886;BME280;32622;48.202;11.326;2022-12-18T09:26:36;1037.86;;;-10.97;49.20
46886;BME280;32622;48.202;11.326;2022-12-18T09:28:39;1037.74;;;-10.54;48.38
46886;BME280;32622;48.202;11.326;2022-12-18T09:30:44;1037.38;;;-9.24;46.05
46886;BME280;32622;48.202;11.326;2022-12-18T09:32:47;1037.37;;;-9.40;46.42
46886;BME280;32622;48.202;11.326;2022-12-18T09:34:51;1037.00;;;-8.28;43.68
46886;BME280;32622;48.202;11.326;2022-12-18T09:36:54;1036.92;;;-7.85;42.57
46886;BME280;32622;48.202;11.326;2022-12-18T09:38:57;1036.73;;;-7.01;41.11
46886;BME280;32622;48.202;11.326;2022-12-18T09:41:03;1037.00;;;-8.30;42.99
46886;BME280;32622;48.202;11.326;2022-12-18T09:43:14;1036.78;;;-7.43;41.71
46886;BME280;32622;48.202;11.326;2022-12-18T09:45:19;1036.83;;;-7.59;41.53
46886;BME280;32622;48.202;11.326;2022-12-18T09:47:25;1036.73;;;-7.04;40.00
46886;BME280;32622;48.202;11.326;2022-12-18T09:49:34;1037.29;;;-9.15;43.33
46886;BME280;32622;48.202;11.326;2022-12-18T09:51:42;1037.09;;;-8.46;42.70
46886;BME280;32622;48.202;11.326;2022-12-18T09:53:51;1036.92;;;-7.95;42.71
46886;BME280;32622;48.202;11.326;2022-12-18T09:55:57;1037.23;;;-9.00;45.24
46886;BME280;32622;48.202;11.326;2022-12-18T09:58:04;1037.06;;;-8.59;43.90
46886;BME280;32622;48.202;11.326;2022-12-18T10:00:16;1037.41;;;-9.87;45.42
46886;BME280;32622;48.202;11.326;2022-12-18T10:02:22;1037.04;;;-8.72;44.67
46886;BME280;32622;48.202;11.326;2022-12-18T10:04:28;1037.43;;;-10.06;46.04
46886;BME280;32622;48.202;11.326;2022-12-18T10:06:37;1036.87;;;-8.14;43.74
46886;BME280;32622;48.202;11.326;2022-12-18T10:08:46;1037.15;;;-9.12;45.43
46886;BME280;32622;48.202;11.326;2022-12-18T10:10:53;1036.71;;;-7.53;42.34
46886;BME280;32622;48.202;11.326;2022-12-18T10:13:08;1036.39;;;-6.56;40.72
46886;BME280;32622;48.202;11.326;2022-12-18T10:15:19;1036.68;;;-7.55;40.91
46886;BME280;32622;48.202;11.326;2022-12-18T10:17:30;1036.52;;;-7.08;41.22
46886;BME280;32622;48.202;11.326;2022-12-18T10:19:43;1036.31;;;-6.55;39.96
46886;BME280;32622;48.202;11.326;2022-12-18T10:21:55;1036.32;;;-6.57;39.87
46886;BME280;32622;48.202;11.326;2022-12-18T10:24:09;1037.10;;;-9.76;44.00
46886;BME280;32622;48.202;11.326;2022-12-18T10:26:17;1036.61;;;-8.14;42.17
46886;BME280;32622;48.202;11.326;2022-12-18T10:28:21;1036.73;;;-8.94;44.04
46886;BME280;32622;48.202;11.326;2022-12-18T10:30:26;1036.72;;;-8.85;43.65
46886;BME280;32622;48.202;11.326;2022-12-18T10:32:30;1036.81;;;-9.23;44.69
46886;BME280;32622;48.202;11.326;2022-12-18T10:34:33;1036.73;;;-8.81;43.73
46886;BME280;32622;48.202;11.326;2022-12-18T10:36:37;1036.38;;;-7.47;42.10
46886;BME280;32622;48.202;11.326;2022-12-18T10:38:41;1036.12;;;-6.63;40.34
46886;BME280;32622;48.202;11.326;2022-12-18T10:40:51;1035.98;;;-6.26;39.55
46886;BME280;32622;48.202;11.326;2022-12-18T10:43:05;1035.95;;;-5.99;38.84
46886;BME280;32622;48.202;11.326;2022-12-18T10:45:15;1035.92;;;-5.80;37.83
46886;BME280;32622;48.202;11.326;2022-12-18T10:47:19;1035.94;;;-6.02;37.18
46886;BME280;32622;48.202;11.326;2022-12-18T10:49:26;1035.64;;;-4.85;36.41
46886;BME280;32622;48.202;11.326;2022-12-18T10:51:31;1035.62;;;-4.84;36.21
46886;BME280;32622;48.202;11.326;2022-12-18T10:53:36;1035.56;;;-4.47;35.97
46886;BME280;32622;48.202;11.326;2022-12-18T10:55:44;1035.57;;;-4.31;36.02
46886;BME280;32622;48.202;11.326;2022-12-18T10:57:48;1035.63;;;-4.50;35.14
46886;BME280;32622;48.202;11.326;2022-12-18T10:59:53;1035.50;;;-4.02;34.74
46886;BME280;32622;48.202;11.326;2022-12-18T11:01:57;1035.63;;;-4.31;34.49
46886;BME280;32622;48.202;11.326;2022-12-18T11:04:07;1035.74;;;-4.59;34.15
46886;BME280;32622;48.202;11.326;2022-12-18T11:06:12;1035.76;;;-4.67;34.91
46886;BME280;32622;48.202;11.326;2022-12-18T11:08:20;1035.59;;;-4.04;34.70
46886;BME280;32622;48.202;11.326;2022-12-18T11:10:28;1035.85;;;-4.68;34.46
46886;BME280;32622;48.202;11.326;2022-12-18T11:12:33;1035.66;;;-4.09;34.65
46886;BME280;32622;48.202;11.326;2022-12-18T11:14:43;1035.70;;;-4.22;34.43
46886;BME280;32622;48.202;11.326;2022-12-18T11:16:50;1035.64;;;-4.20;34.45
46886;BME280;32622;48.202;11.326;2022-12-18T11:18:54;1036.09;;;-5.79;35.70
46886;BME280;32622;48.202;11.326;2022-12-18T11:20:59;1036.12;;;-5.81;36.46
46886;BME280;32622;48.202;11.326;2022-12-18T11:23:12;1036.12;;;-5.85;36.47
46886;BME280;32622;48.202;11.326;2022-12-18T11:25:19;1035.92;;;-5.30;35.94
46886;BME280;32622;48.202;11.326;2022-12-18T11:27:22;1035.86;;;-4.94;36.13
46886;BME280;32622;48.202;11.326;2022-12-18T11:29:34;1036.58;;;-7.50;38.71
46886;BME280;32622;48.202;11.326;2022-12-18T11:31:37;1036.67;;;-8.26;41.07
46886;BME280;32622;48.202;11.326;2022-12-18T11:33:43;1036.12;;;-6.42;38.93
46886;BME280;32622;48.202;11.326;2022-12-18T11:35:51;1036.50;;;-7.75;41.01
46886;BME280;32622;48.202;11.326;2022-12-18T11:37:58;1036.93;;;-9.33;42.98
46886;BME280;32622;48.202;11.326;2022-12-18T11:40:09;1036.45;;;-7.56;41.28
46886;BME280;32622;48.202;11.326;2022-12-18T11:42:19;1036.72;;;-8.43;42.55
46886;BME280;32622;48.202;11.326;2022-12-18T11:44:26;1036.48;;;-7.71;40.70
46886;BME280;32622;48.202;11.326;2022-12-18T11:46:33;1036.24;;;-7.09;40.29
46886;BME280;32622;48.202;11.326;2022-12-18T11:48:43;1036.39;;;-7.56;41.40
46886;BME280;32622;48.202;11.326;2022-12-18T11:50:49;1036.28;;;-7.08;41.03
46886;BME280;32622;48.202;11.326;2022-12-18T11:52:53;1036.36;;;-7.67;40.74
46886;BME280;32622;48.202;11.326;2022-12-18T11:55:00;1035.98;;;-6.74;39.80
46886;BME280;32622;48.202;11.326;2022-12-18T11:57:13;1035.78;;;-6.22;38.06
46886;BME280;32622;48.202;11.326;2022-12-18T11:59:29;1035.63;;;-5.63;37.38
46886;BME280;32622;48.202;11.326;2022-12-18T12:01:45;1035.56;;;-5.07;36.70
46886;BME280;32622;48.202;11.326;2022-12-18T12:04:08;1035.92;;;-6.38;37.27
46886;BME280;32622;48.202;11.326;2022-12-18T12:06:21;1035.59;;;-5.32;36.52
46886;BME280;32622;48.202;11.326;2022-12-18T12:08:37;1035.94;;;-6.61;38.22
46886;BME280;32622;48.202;11.326;2022-12-18T12:10:47;1035.72;;;-5.84;37.56
46886;BME280;32622;48.202;11.326;2022-12-18T12:13:05;1035.73;;;-6.12;37.49
46886;BME280;32622;48.202;11.326;2022-12-18T12:15:17;1035.79;;;-6.22;38.20
46886;BME280;32622;48.202;11.326;2022-12-18T12:17:32;1035.73;;;-5.68;37.06
46886;BME280;32622;48.202;11.326;2022-12-18T12:19:48;1035.41;;;-4.82;36.51
46886;BME280;32622;48.202;11.326;2022-12-18T12:22:02;1035.40;;;-4.89;36.09
46886;BME280;32622;48.202;11.326;2022-12-18T12:24:19;1035.32;;;-4.58;35.02
46886;BME280;32622;48.202;11.326;2022-12-18T12:26:30;1036.07;;;-7.50;37.52
46886;BME280;32622;48.202;11.326;2022-12-18T12:28:50;1035.88;;;-6.81;38.61
46886;BME280;32622;48.202;11.326;2022-12-18T12:31:02;1035.87;;;-6.89;39.59
46886;BME280;32622;48.202;11.326;2022-12-18T12:33:19;1035.75;;;-6.56;38.24
46886;BME280;32622;48.202;11.326;2022-12-18T12:35:32;1036.02;;;-7.22;38.95
46886;BME280;32622;48.202;11.326;2022-12-18T12:37:43;1036.08;;;-7.26;39.88
46886;BME280;32622;48.202;11.326;2022-12-18T12:39:51;1035.91;;;-6.71;39.03
46886;BME280;32622;48.202;11.326;2022-12-18T12:41:56;1035.90;;;-6.82;39.41
46886;BME280;32622;48.202;11.326;2022-12-18T12:44:04;1035.85;;;-6.75;38.64
46886;BME280;32622;48.202;11.326;2022-12-18T12:46:10;1035.80;;;-6.47;38.85
46886;BME280;32622;48.202;11.326;2022-12-18T12:48:18;1036.31;;;-8.11;41.65
46886;BME280;32622;48.202;11.326;2022-12-18T12:50:24;1036.51;;;-9.05;41.88
46886;BME280;32622;48.202;11.326;2022-12-18T12:52:35;1035.87;;;-6.93;39.34
46886;BME280;32622;48.202;11.326;2022-12-18T12:54:39;1035.62;;;-6.01;37.83
46886;BME280;32622;48.202;11.326;2022-12-18T12:56:48;1035.85;;;-6.76;38.81
46886;BME280;32622;48.202;11.326;2022-12-18T12:58:59;1035.68;;;-6.20;38.36
46886;BME280;32622;48.202;11.326;2022-12-18T13:01:10;1035.54;;;-5.55;37.41
46886;BME280;32622;48.202;11.326;2022-12-18T13:03:27;1035.56;;;-5.62;37.21
46886;BME280;32622;48.202;11.326;2022-12-18T13:05:39;1036.05;;;-7.34;38.54
46886;BME280;32622;48.202;11.326;2022-12-18T13:07:49;1035.75;;;-6.26;38.05
46886;BME280;32622;48.202;11.326;2022-12-18T13:10:23;1035.65;;;-5.77;37.43
46886;BME280;32622;48.202;11.326;2022-12-18T13:12:26;1035.99;;;-6.99;38.75
46886;BME280;32622;48.202;11.326;2022-12-18T13:14:32;1035.69;;;-5.53;37.51
46886;BME280;32622;48.202;11.326;2022-12-18T13:16:39;1035.81;;;-5.91;37.37
46886;BME280;32622;48.202;11.326;2022-12-18T13:18:49;1035.77;;;-5.97;36.79
46886;BME280;32622;48.202;11.326;2022-12-18T13:21:04;1035.62;;;-5.69;36.66
46886;BME280;32622;48.202;11.326;2022-12-18T13:23:28;1035.67;;;-6.22;37.99
46886;BME280;32622;48.202;11.326;2022-12-18T13:25:36;1035.63;;;-6.01;37.83
46886;BME280;32622;48.202;11.326;2022-12-18T13:28:12;1035.67;;;-6.22;38.63
46886;BME280;32622;48.202;11.326;2022-12-18T13:30:43;1036.29;;;-8.06;40.57
46886;BME280;32622;48.202;11.326;2022-12-18T13:32:46;1036.19;;;-7.69;41.02
46886;BME280;32622;48.202;11.326;2022-12-18T13:34:51;1036.76;;;-9.84;44.76
46886;BME280;32622;48.202;11.326;2022-12-18T13:37:43;1036.37;;;-8.75;43.60
46886;BME280;32622;48.202;11.326;2022-12-18T13:39:46;1036.17;;;-8.00;41.77